createdAt,value
2022-11-26T00:00:00.457Z,1.53
2022-11-26T00:02:31.893Z,1.23
2022-11-26T00:05:00.864Z,1.43
2022-11-26T00:07:32.153Z,1.43
2022-11-26T00:10:02.134Z,1.77
2022-11-26T00:12:34.915Z,1.30
2022-11-26T00:15:15.930Z,1.23
2022-11-26T00:17:44.369Z,1.27
2022-11-26T00:20:13.073Z,1.50
2022-11-26T00:22:45.251Z,1.60
2022-11-26T00:25:18.853Z,1.67
2022-11-26T00:27:49.489Z,1.60
2022-11-26T00:30:22.659Z,1.37
2022-11-26T00:32:51.870Z,1.40
2022-11-26T00:35:20.929Z,1.10
2022-11-26T00:37:51.787Z,1.40
2022-11-26T00:40:24.893Z,1.20
2022-11-26T00:43:01.205Z,1.60
2022-11-26T00:45:32.225Z,1.30
2022-11-26T00:48:01.974Z,0.83
2022-11-26T00:50:35.095Z,1.43
2022-11-26T00:53:04.229Z,1.00
2022-11-26T00:55:39.602Z,1.47
2022-11-26T00:58:22.595Z,1.13
2022-11-26T01:00:51.173Z,1.40
2022-11-26T01:03:19.866Z,1.73
2022-11-26T01:05:51.827Z,1.73
2022-11-26T01:08:29.637Z,1.57
2022-11-26T01:10:58.350Z,1.43
2022-11-26T01:13:28.461Z,1.13
2022-11-26T01:15:58.888Z,1.47
2022-11-26T01:18:27.959Z,1.13
2022-11-26T01:20:56.346Z,1.07
2022-11-26T01:23:24.790Z,1.23
2022-11-26T01:25:53.196Z,1.13
2022-11-26T01:28:21.600Z,0.97
2022-11-26T01:30:51.522Z,1.00
2022-11-26T01:33:19.941Z,0.90
2022-11-26T01:35:49.579Z,1.40
2022-11-26T01:38:17.952Z,0.90
2022-11-26T01:41:03.073Z,1.03
2022-11-26T01:43:38.118Z,1.10
2022-11-26T01:46:14.789Z,1.10
2022-11-26T01:48:43.440Z,1.07
2022-11-26T01:51:13.588Z,1.20
2022-11-26T01:53:50.608Z,1.10
2022-11-26T01:56:23.208Z,0.70
2022-11-26T01:58:57.216Z,0.80
2022-11-26T02:01:28.169Z,0.83
2022-11-26T02:04:03.841Z,0.80
2022-11-26T02:06:34.818Z,0.80
2022-11-26T02:09:05.997Z,1.00
2022-11-26T02:11:34.524Z,0.90
2022-11-26T02:14:06.265Z,0.83
2022-11-26T02:16:50.225Z,1.20
2022-11-26T02:19:44.795Z,1.10
2022-11-26T02:22:30.059Z,0.90
2022-11-26T02:25:08.801Z,0.80
2022-11-26T02:28:15.417Z,0.90
2022-11-26T02:30:47.630Z,1.10
2022-11-26T02:33:21.708Z,1.00
2022-11-26T02:35:54.642Z,0.83
2022-11-26T02:38:30.398Z,0.80
2022-11-26T02:40:58.895Z,0.97
2022-11-26T02:43:30.511Z,1.00
2022-11-26T02:46:04.464Z,1.10
2022-11-26T02:48:35.749Z,0.90
2022-11-26T02:51:09.695Z,0.87
2022-11-26T02:53:41.133Z,0.90
2022-11-26T02:56:13.118Z,0.83
2022-11-26T02:58:41.783Z,0.83
2022-11-26T03:01:16.822Z,0.93
2022-11-26T03:03:50.008Z,1.23
2022-11-26T03:06:19.886Z,1.07
2022-11-26T03:08:48.351Z,0.90
2022-11-26T03:11:16.791Z,0.93
2022-11-26T03:13:45.227Z,1.27
2022-11-26T03:16:15.131Z,1.10
2022-11-26T03:18:43.743Z,1.00
2022-11-26T03:21:12.186Z,1.00
2022-11-26T03:23:40.601Z,1.10
2022-11-26T03:26:09.420Z,1.10
2022-11-26T03:28:37.870Z,1.03
2022-11-26T03:31:06.530Z,1.83
2022-11-26T03:33:36.318Z,1.70
2022-11-26T03:36:04.941Z,1.57
2022-11-26T03:38:33.400Z,1.50
2022-11-26T03:41:05.695Z,1.07
2022-11-26T03:43:34.154Z,1.30
2022-11-26T03:46:02.642Z,1.20
2022-11-26T03:48:31.220Z,1.23
2022-11-26T03:51:01.701Z,1.07
2022-11-26T03:53:30.107Z,1.13
2022-11-26T03:55:58.513Z,1.40
2022-11-26T03:58:26.937Z,1.10
2022-11-26T04:00:55.510Z,1.07
2022-11-26T04:03:24.165Z,0.97
2022-11-26T04:05:52.698Z,1.20
2022-11-26T04:08:22.504Z,1.03
2022-11-26T04:10:50.920Z,1.30
2022-11-26T04:13:19.466Z,1.60
2022-11-26T04:15:49.593Z,1.20
2022-11-26T04:18:18.779Z,1.07
2022-11-26T04:20:52.834Z,1.10
2022-11-26T04:23:25.554Z,1.30
2022-11-26T04:25:53.990Z,1.30
2022-11-26T04:28:22.414Z,1.13
2022-11-26T04:30:52.063Z,1.23
2022-11-26T04:33:21.027Z,1.40
2022-11-26T04:35:50.875Z,1.13
2022-11-26T04:38:24.199Z,1.27
2022-11-26T04:40:55.999Z,1.70
2022-11-26T04:43:24.591Z,1.20
2022-11-26T04:45:53.082Z,1.10
2022-11-26T04:48:21.602Z,1.10
2022-11-26T04:50:50.571Z,1.10
2022-11-26T04:53:21.974Z,1.20
2022-11-26T04:55:50.990Z,1.13
2022-11-26T04:58:21.859Z,1.53
2022-11-26T05:00:51.514Z,1.40
2022-11-26T05:03:20.341Z,1.20
2022-11-26T05:05:48.895Z,0.93
2022-11-26T05:08:18.173Z,1.10
2022-11-26T05:10:46.594Z,1.00
2022-11-26T05:13:15.026Z,1.40
2022-11-26T05:15:44.895Z,1.60
2022-11-26T05:18:13.355Z,1.50
2022-11-26T05:20:42.050Z,1.80
2022-11-26T05:23:10.690Z,1.53
2022-11-26T05:25:39.155Z,1.80
2022-11-26T05:28:07.857Z,2.23
2022-11-26T05:30:36.485Z,1.73
2022-11-26T05:33:06.483Z,1.60
2022-11-26T05:35:34.933Z,1.60
2022-11-26T05:38:05.866Z,1.80
2022-11-26T05:40:34.430Z,1.50
2022-11-26T05:43:02.865Z,2.20
2022-11-26T05:45:31.352Z,2.27
2022-11-26T05:47:59.805Z,2.73
2022-11-26T05:50:29.597Z,4.10
2022-11-26T05:52:58.094Z,4.70
2022-11-26T05:55:28.646Z,4.57
2022-11-26T05:57:58.058Z,4.63
2022-11-26T06:00:27.629Z,3.23
2022-11-26T06:02:56.206Z,4.70
2022-11-26T06:05:24.701Z,4.03
2022-11-26T06:07:54.612Z,3.60
2022-11-26T06:10:23.096Z,3.17
2022-11-26T06:12:51.488Z,3.37
2022-11-26T06:15:20.245Z,3.20
2022-11-26T06:17:48.679Z,3.30
2022-11-26T06:20:17.256Z,4.03
2022-11-26T06:22:45.873Z,3.60
2022-11-26T06:25:15.906Z,4.83
2022-11-26T06:27:44.529Z,3.20
2022-11-26T06:30:14.029Z,3.03
2022-11-26T06:32:42.516Z,2.07
2022-11-26T06:35:11.504Z,2.20
2022-11-26T06:37:39.926Z,2.70
2022-11-26T06:40:09.780Z,3.60
2022-11-26T06:42:39.649Z,2.77
2022-11-26T06:45:08.845Z,2.70
2022-11-26T06:47:37.244Z,2.50
2022-11-26T06:50:10.745Z,2.37
2022-11-26T06:52:39.659Z,2.67
2022-11-26T06:55:08.725Z,2.37
2022-11-26T06:57:37.188Z,3.77
2022-11-26T07:00:08.622Z,3.30
2022-11-26T07:02:38.535Z,3.00
2022-11-26T07:05:07.007Z,2.70
2022-11-26T07:07:38.563Z,3.13
2022-11-26T07:10:08.478Z,3.47
2022-11-26T07:12:37.559Z,3.47
2022-11-26T07:15:08.462Z,3.10
2022-11-26T07:17:36.868Z,2.37
2022-11-26T07:20:06.154Z,2.40
2022-11-26T07:22:35.974Z,3.13
2022-11-26T07:25:08.096Z,3.97
2022-11-26T07:27:39.607Z,3.90
2022-11-26T07:30:12.003Z,3.80
2022-11-26T07:32:40.854Z,3.80
2022-11-26T07:35:17.742Z,4.17
2022-11-26T07:37:46.318Z,3.97
2022-11-26T07:40:15.482Z,4.13
2022-11-26T07:42:44.011Z,4.67
2022-11-26T07:45:14.074Z,3.57
2022-11-26T07:47:43.414Z,4.03
2022-11-26T07:50:12.149Z,4.60
2022-11-26T07:52:40.608Z,3.87
2022-11-26T07:55:12.666Z,4.70
2022-11-26T07:57:41.382Z,4.83
2022-11-26T08:00:11.010Z,5.03
2022-11-26T08:02:43.983Z,5.30
2022-11-26T08:05:12.527Z,6.10
2022-11-26T08:07:40.954Z,5.37
2022-11-26T08:10:10.210Z,4.97
2022-11-26T08:12:38.615Z,4.93
2022-11-26T08:15:07.790Z,5.53
2022-11-26T08:17:36.285Z,5.27
2022-11-26T08:20:07.982Z,5.30
2022-11-26T08:22:36.434Z,5.20
2022-11-26T08:25:05.095Z,5.00
2022-11-26T08:27:33.745Z,5.23
2022-11-26T08:30:02.284Z,4.90
2022-11-26T08:32:30.752Z,5.17
2022-11-26T08:34:59.225Z,3.70
2022-11-26T08:37:29.089Z,4.30
2022-11-26T08:39:57.652Z,3.83
2022-11-26T08:42:26.044Z,4.17
2022-11-26T08:44:55.044Z,3.73
2022-11-26T08:47:23.500Z,4.23
2022-11-26T08:49:51.970Z,4.60
2022-11-26T08:52:20.399Z,4.47
2022-11-26T08:54:51.080Z,3.93
2022-11-26T08:57:20.329Z,4.60
2022-11-26T08:59:48.729Z,4.70
2022-11-26T09:02:18.925Z,4.87
2022-11-26T09:04:47.677Z,4.40
2022-11-26T09:07:16.633Z,4.80
2022-11-26T09:09:45.323Z,5.60
2022-11-26T09:12:15.173Z,6.00
2022-11-26T09:14:43.882Z,6.50
2022-11-26T09:17:13.449Z,6.90
2022-11-26T09:19:42.074Z,7.23
2022-11-26T09:22:10.521Z,7.47
2022-11-26T09:24:39.234Z,7.63
2022-11-26T09:27:08.403Z,8.37
2022-11-26T09:29:38.308Z,9.43
2022-11-26T09:32:24.282Z,10.20
2022-11-26T09:34:55.807Z,13.03
2022-11-26T09:37:24.312Z,12.00
2022-11-26T09:39:54.903Z,13.57
2022-11-26T09:42:31.465Z,14.53
2022-11-26T09:45:24.790Z,13.90
2022-11-26T09:47:54.775Z,15.00
2022-11-26T09:50:29.576Z,15.43
2022-11-26T09:53:01.712Z,15.77
2022-11-26T09:55:32.544Z,15.67
2022-11-26T09:58:12.787Z,15.23
2022-11-26T10:00:44.978Z,14.60
2022-11-26T10:03:15.816Z,15.63
2022-11-26T10:05:53.694Z,16.17
2022-11-26T10:08:36.224Z,14.50
2022-11-26T10:11:11.308Z,15.50
2022-11-26T10:13:46.696Z,15.10
2022-11-26T10:16:30.886Z,15.07
2022-11-26T10:19:05.369Z,14.43
2022-11-26T10:21:58.067Z,14.87
2022-11-26T10:24:30.962Z,13.33
2022-11-26T10:27:01.942Z,14.00
2022-11-26T10:29:36.571Z,14.73
2022-11-26T10:32:14.943Z,12.73
2022-11-26T10:34:50.832Z,13.73
2022-11-26T10:37:20.280Z,14.17
2022-11-26T10:39:48.777Z,15.10
2022-11-26T10:42:20.405Z,14.30
2022-11-26T10:44:50.357Z,14.20
2022-11-26T10:47:27.166Z,11.80
2022-11-26T10:49:58.447Z,10.93
2022-11-26T10:52:29.722Z,11.30
2022-11-26T10:55:22.668Z,11.07
2022-11-26T10:57:56.501Z,12.83
2022-11-26T11:00:35.240Z,13.13
2022-11-26T11:03:13.706Z,11.90
2022-11-26T11:05:43.730Z,11.70
2022-11-26T11:08:16.461Z,12.63
2022-11-26T11:10:56.734Z,10.20
2022-11-26T11:13:39.786Z,10.90
2022-11-26T11:16:10.364Z,9.70
2022-11-26T11:18:48.411Z,7.53
2022-11-26T11:21:19.000Z,7.17
2022-11-26T11:24:07.753Z,7.67
2022-11-26T11:26:43.631Z,10.70
2022-11-26T11:29:34.032Z,10.23
2022-11-26T11:32:05.214Z,10.53
2022-11-26T11:34:38.386Z,10.60
2022-11-26T11:37:18.676Z,9.80
2022-11-26T11:39:47.210Z,10.47
2022-11-26T11:42:23.868Z,9.73
2022-11-26T11:44:53.356Z,9.53
2022-11-26T11:47:34.428Z,11.57
2022-11-26T11:50:24.563Z,8.63
2022-11-26T11:53:05.468Z,6.07
2022-11-26T11:55:52.178Z,6.20
2022-11-26T11:58:52.302Z,5.10
2022-11-26T12:01:31.992Z,8.93
2022-11-26T12:04:43.275Z,6.30
2022-11-26T12:07:43.042Z,6.03
2022-11-26T12:10:16.734Z,6.20
2022-11-26T12:12:49.006Z,4.80
2022-11-26T12:15:24.683Z,4.33
2022-11-26T12:17:59.121Z,4.03
2022-11-26T12:20:32.738Z,4.30
2022-11-26T12:23:24.177Z,4.20
2022-11-26T12:25:58.080Z,4.80
2022-11-26T12:28:31.874Z,5.07
2022-11-26T12:31:05.850Z,5.70
2022-11-26T12:33:41.543Z,5.97
2022-11-26T12:36:20.528Z,4.97
2022-11-26T12:38:54.257Z,5.33
2022-11-26T12:41:28.945Z,5.90
2022-11-26T12:44:05.698Z,6.23
2022-11-26T12:46:42.531Z,6.17
2022-11-26T12:49:21.876Z,5.40
2022-11-26T12:51:59.149Z,5.70
2022-11-26T12:54:34.912Z,7.27
2022-11-26T12:57:11.634Z,5.27
2022-11-26T12:59:49.495Z,5.57
2022-11-26T13:02:24.801Z,6.17
2022-11-26T13:04:54.997Z,5.83
2022-11-26T13:07:53.228Z,6.57
2022-11-26T13:10:38.760Z,7.57
2022-11-26T13:13:17.924Z,7.83
2022-11-26T13:15:51.383Z,7.17
2022-11-26T13:18:26.916Z,7.93
2022-11-26T13:21:09.132Z,8.33
2022-11-26T13:23:51.780Z,7.90
2022-11-26T13:26:45.626Z,10.40
2022-11-26T13:29:42.628Z,7.73
2022-11-26T13:32:44.208Z,7.83
2022-11-26T13:35:22.823Z,9.10
2022-11-26T13:38:15.106Z,8.70
2022-11-26T13:41:22.825Z,9.43
2022-11-26T13:44:23.790Z,9.63
2022-11-26T13:46:59.414Z,8.93
2022-11-26T13:49:34.287Z,8.07
2022-11-26T13:52:06.998Z,7.93
2022-11-26T13:54:39.841Z,9.73
2022-11-26T13:57:13.944Z,8.13
2022-11-26T13:59:47.706Z,7.57
2022-11-26T14:02:47.458Z,9.10
2022-11-26T14:05:18.437Z,9.13
2022-11-26T14:07:47.879Z,10.03
2022-11-26T14:10:42.737Z,9.63
2022-11-26T14:13:16.311Z,9.37
2022-11-26T14:16:02.570Z,8.63
2022-11-26T14:19:07.590Z,9.23
2022-11-26T14:22:03.827Z,9.97
2022-11-26T14:24:55.169Z,11.03
2022-11-26T14:27:25.352Z,12.00
2022-11-26T14:29:58.981Z,10.33
2022-11-26T14:32:31.181Z,9.87
2022-11-26T14:35:00.323Z,11.20
2022-11-26T14:37:32.183Z,10.63
2022-11-26T14:40:01.978Z,11.70
2022-11-26T14:42:30.982Z,11.13
2022-11-26T14:45:03.882Z,11.20
2022-11-26T14:47:33.585Z,12.37
2022-11-26T14:50:08.003Z,11.93
2022-11-26T14:52:40.610Z,12.93
2022-11-26T14:55:19.807Z,13.23
2022-11-26T14:57:52.304Z,13.60
2022-11-26T15:00:25.446Z,14.47
2022-11-26T15:02:54.489Z,13.10
2022-11-26T15:05:25.182Z,11.80
2022-11-26T15:08:01.981Z,11.57
2022-11-26T15:10:34.504Z,12.77
2022-11-26T15:13:07.923Z,12.70
2022-11-26T15:15:36.545Z,13.27
2022-11-26T15:18:07.166Z,12.37
2022-11-26T15:20:35.825Z,12.80
2022-11-26T15:23:14.593Z,11.83
2022-11-26T15:25:50.728Z,12.27
2022-11-26T15:28:21.938Z,11.53
2022-11-26T15:30:56.540Z,12.07
2022-11-26T15:33:26.211Z,11.73
2022-11-26T15:35:57.200Z,10.57
2022-11-26T15:38:28.649Z,17.03
2022-11-26T15:41:04.780Z,10.57
2022-11-26T15:43:36.473Z,11.23
2022-11-26T15:46:12.664Z,11.50
2022-11-26T15:48:52.752Z,11.47
2022-11-26T15:51:29.412Z,11.03
2022-11-26T15:54:02.850Z,12.20
2022-11-26T15:56:35.457Z,11.97
2022-11-26T15:59:08.054Z,12.73
2022-11-26T16:01:39.303Z,12.80
2022-11-26T16:04:27.770Z,12.40
2022-11-26T16:07:10.152Z,13.00
2022-11-26T16:09:40.605Z,12.37
2022-11-26T16:12:31.538Z,11.70
2022-11-26T16:15:19.161Z,12.60
2022-11-26T16:17:48.862Z,12.40
2022-11-26T16:20:22.946Z,12.90
2022-11-26T16:22:54.240Z,12.83
2022-11-26T16:25:26.272Z,13.73
2022-11-26T16:28:14.477Z,17.93
2022-11-26T16:30:45.124Z,20.27
2022-11-26T16:33:14.508Z,17.43
2022-11-26T16:35:45.626Z,15.27
2022-11-26T16:38:23.122Z,15.10
2022-11-26T16:40:53.840Z,17.57
2022-11-26T16:43:22.820Z,15.23
2022-11-26T16:45:54.773Z,19.00
2022-11-26T16:48:25.954Z,20.50
2022-11-26T16:50:55.867Z,23.23
2022-11-26T16:53:24.535Z,24.53
2022-11-26T16:55:54.854Z,24.53
2022-11-26T16:58:28.228Z,23.07
2022-11-26T17:00:58.551Z,24.63
2022-11-26T17:03:32.805Z,23.77
2022-11-26T17:06:03.355Z,23.40
2022-11-26T17:08:32.142Z,23.30
2022-11-26T17:11:01.915Z,25.10
2022-11-26T17:13:31.132Z,25.33
2022-11-26T17:16:01.483Z,25.50
2022-11-26T17:18:29.893Z,25.67
2022-11-26T17:20:58.330Z,29.50
2022-11-26T17:23:28.179Z,28.27
2022-11-26T17:25:57.029Z,27.43
2022-11-26T17:28:26.825Z,28.97
2022-11-26T17:30:56.897Z,29.00
2022-11-26T17:33:25.378Z,27.23
2022-11-26T17:35:53.918Z,26.67
2022-11-26T17:38:23.118Z,27.70
2022-11-26T17:40:51.737Z,27.97
2022-11-26T17:43:20.177Z,28.30
2022-11-26T17:45:50.074Z,28.47
2022-11-26T17:48:18.565Z,28.60
2022-11-26T17:50:46.975Z,25.80
2022-11-26T17:53:15.421Z,25.87
2022-11-26T17:55:43.916Z,22.43
2022-11-26T17:58:13.118Z,23.93
2022-11-26T18:00:41.632Z,23.10
2022-11-26T18:03:11.985Z,26.07
2022-11-26T18:05:42.405Z,27.53
2022-11-26T18:08:11.005Z,27.23
2022-11-26T18:10:41.375Z,32.57
2022-11-26T18:13:09.742Z,30.97
2022-11-26T18:15:38.135Z,29.90
2022-11-26T18:18:07.542Z,33.23
2022-11-26T18:20:37.347Z,28.73
2022-11-26T18:23:05.857Z,31.93
2022-11-26T18:25:35.441Z,23.67
2022-11-26T18:28:03.814Z,24.07
2022-11-26T18:30:32.282Z,26.00
2022-11-26T18:33:01.799Z,25.90
2022-11-26T18:35:30.225Z,25.97
2022-11-26T18:38:00.101Z,26.20
2022-11-26T18:40:28.607Z,24.00
2022-11-26T18:42:57.005Z,23.97
2022-11-26T18:45:25.517Z,27.10
2022-11-26T18:47:54.175Z,25.37
2022-11-26T18:50:22.703Z,25.50
2022-11-26T18:52:51.368Z,25.00
2022-11-26T18:55:21.603Z,26.87
2022-11-26T18:57:51.309Z,25.47
2022-11-26T19:00:20.746Z,25.63
2022-11-26T19:02:49.540Z,25.07
2022-11-26T19:05:18.306Z,26.03
2022-11-26T19:07:47.234Z,25.60
2022-11-26T19:10:15.743Z,26.27
2022-11-26T19:12:45.533Z,28.00
2022-11-26T19:15:14.093Z,28.10
2022-11-26T19:17:42.534Z,28.17
2022-11-26T19:20:12.293Z,28.40
2022-11-26T19:22:40.874Z,31.63
2022-11-26T19:25:10.069Z,30.67
2022-11-26T19:27:38.711Z,30.30
2022-11-26T19:30:10.399Z,33.53
2022-11-26T19:32:38.862Z,33.57
2022-11-26T19:35:07.882Z,31.83
2022-11-26T19:37:36.272Z,29.93
2022-11-26T19:40:05.171Z,29.93
2022-11-26T19:42:33.854Z,26.20
2022-11-26T19:45:02.360Z,26.10
2022-11-26T19:47:32.189Z,27.07
2022-11-26T19:50:00.591Z,24.53
2022-11-26T19:52:29.409Z,25.97
2022-11-26T19:54:58.199Z,25.20
2022-11-26T19:57:26.657Z,25.93
2022-11-26T19:59:55.096Z,25.20
2022-11-26T20:02:23.524Z,26.27
2022-11-26T20:04:53.368Z,25.87
2022-11-26T20:07:21.913Z,20.77
2022-11-26T20:09:52.422Z,21.33
2022-11-26T20:12:20.928Z,22.63
2022-11-26T20:14:49.550Z,23.73
2022-11-26T20:17:18.069Z,24.63
2022-11-26T20:19:47.201Z,23.57
2022-11-26T20:22:18.184Z,20.00
2022-11-26T20:24:46.748Z,19.67
2022-11-26T20:27:15.195Z,21.63
2022-11-26T20:29:43.631Z,16.10
2022-11-26T20:32:13.165Z,21.80
2022-11-26T20:34:41.933Z,23.10
2022-11-26T20:37:10.362Z,23.00
2022-11-26T20:39:40.570Z,23.43
2022-11-26T20:42:09.418Z,23.87
2022-11-26T20:44:37.815Z,25.03
2022-11-26T20:47:06.323Z,20.33
2022-11-26T20:49:42.531Z,26.60
2022-11-26T20:52:11.572Z,25.27
2022-11-26T20:54:41.493Z,25.33
2022-11-26T20:57:09.949Z,23.57
2022-11-26T20:59:39.113Z,14.70
2022-11-26T21:02:07.996Z,21.27
2022-11-26T21:04:36.472Z,19.70
2022-11-26T21:07:05.012Z,19.30
2022-11-26T21:09:33.492Z,22.17
2022-11-26T21:12:03.314Z,21.03
2022-11-26T21:14:31.913Z,22.80
2022-11-26T21:17:00.321Z,22.17
2022-11-26T21:19:28.954Z,20.20
2022-11-26T21:21:57.369Z,20.97
2022-11-26T21:24:25.951Z,21.23
2022-11-26T21:26:54.468Z,18.63
2022-11-26T21:29:24.335Z,19.00
2022-11-26T21:31:52.816Z,16.90
2022-11-26T21:34:23.927Z,18.17
2022-11-26T21:36:52.447Z,16.23
2022-11-26T21:39:21.106Z,15.60
2022-11-26T21:41:50.146Z,14.63
2022-11-26T21:44:18.841Z,10.93
2022-11-26T21:46:49.390Z,6.97
2022-11-26T21:49:17.794Z,4.90
2022-11-26T21:51:46.191Z,5.10
2022-11-26T21:54:14.967Z,3.60
2022-11-26T21:56:43.448Z,5.80
2022-11-26T21:59:11.967Z,3.63
2022-11-26T22:01:40.714Z,2.90
2022-11-26T22:04:15.219Z,2.93
2022-11-26T22:06:46.157Z,1.67
2022-11-26T22:09:15.689Z,1.70
2022-11-26T22:11:45.759Z,1.57
2022-11-26T22:14:16.732Z,1.60
2022-11-26T22:16:47.339Z,1.50
2022-11-26T22:19:17.505Z,1.93
2022-11-26T22:21:46.396Z,1.80
2022-11-26T22:24:16.483Z,1.20
2022-11-26T22:26:45.738Z,1.30
2022-11-26T22:29:15.275Z,4.83
2022-11-26T22:31:44.927Z,5.90
2022-11-26T22:34:18.053Z,9.23
2022-11-26T22:36:46.903Z,10.83
2022-11-26T22:39:17.512Z,12.63
2022-11-26T22:41:48.019Z,13.13
2022-11-26T22:44:17.527Z,12.30
2022-11-26T22:46:46.443Z,7.50
2022-11-26T22:49:18.996Z,11.40
2022-11-26T22:51:48.118Z,8.60
2022-11-26T22:54:18.047Z,9.73
2022-11-26T22:56:46.740Z,6.53
2022-11-26T22:59:15.989Z,6.63
2022-11-26T23:01:44.683Z,10.40
2022-11-26T23:04:13.380Z,11.27
2022-11-26T23:06:43.354Z,7.60
2022-11-26T23:09:13.447Z,5.83
2022-11-26T23:11:43.458Z,4.80
2022-11-26T23:14:12.424Z,6.77
2022-11-26T23:16:42.571Z,9.10
2022-11-26T23:19:12.204Z,4.93
2022-11-26T23:21:44.671Z,4.90
2022-11-26T23:24:13.715Z,2.67
2022-11-26T23:26:42.906Z,3.13
2022-11-26T23:29:12.476Z,5.10
2022-11-26T23:31:42.756Z,2.20
2022-11-26T23:34:11.915Z,4.97
2022-11-26T23:36:40.814Z,4.90
2022-11-26T23:39:13.849Z,8.27
2022-11-26T23:41:43.708Z,10.37
2022-11-26T23:44:12.219Z,14.17
2022-11-26T23:46:40.723Z,14.43
2022-11-26T23:49:09.135Z,4.07
2022-11-26T23:51:37.547Z,7.97
2022-11-26T23:54:06.089Z,5.10
2022-11-26T23:56:36.733Z,11.50
2022-11-26T23:59:06.298Z,16.50
